createdAt,value
2023-03-05T00:00:01.561Z,1058.00
2023-03-05T00:01:01.611Z,1060.00
2023-03-05T00:02:01.668Z,1058.00
2023-03-05T00:03:01.729Z,1054.00
2023-03-05T00:04:01.784Z,1054.00
2023-03-05T00:05:01.836Z,1052.00
2023-03-05T00:06:01.900Z,1052.00
2023-03-05T00:07:02.489Z,1052.00
2023-03-05T00:08:02.027Z,1058.00
2023-03-05T00:09:02.075Z,1057.00
2023-03-05T00:10:02.128Z,1060.00
2023-03-05T00:11:02.171Z,1061.00
2023-03-05T00:12:02.244Z,1060.00
2023-03-05T00:13:02.282Z,1059.00
2023-03-05T00:14:02.327Z,1059.00
2023-03-05T00:15:02.388Z,1056.00
2023-03-05T00:16:02.474Z,1055.00
2023-03-05T00:17:02.483Z,1055.00
2023-03-05T00:18:02.545Z,1055.00
2023-03-05T00:19:02.601Z,1050.00
2023-03-05T00:20:02.713Z,1049.00
2023-03-05T00:21:02.688Z,1048.00
2023-03-05T00:22:02.743Z,1049.00
2023-03-05T00:23:02.803Z,1050.00
2023-03-05T00:24:02.846Z,1048.00
2023-03-05T00:25:02.917Z,1044.00
2023-03-05T00:26:02.960Z,1044.00
2023-03-05T00:27:03.010Z,1043.00
2023-03-05T00:28:03.061Z,1048.00
2023-03-05T00:29:03.111Z,1047.00
2023-03-05T01:54:07.739Z,1022.00
2023-03-05T01:55:07.994Z,1019.00
2023-03-05T01:56:07.900Z,1015.00
2023-03-05T01:57:07.918Z,1015.00
2023-03-05T01:58:07.974Z,1015.00
2023-03-05T01:59:08.032Z,1016.00
2023-03-05T02:00:08.099Z,1016.00
2023-03-05T02:01:08.245Z,1016.00
2023-03-05T02:02:08.209Z,1013.00
2023-03-05T02:03:08.264Z,1022.00
2023-03-05T02:04:08.457Z,1021.00
2023-03-05T02:05:08.397Z,1019.00
2023-03-05T02:06:08.449Z,1018.00
2023-03-05T02:07:08.504Z,1014.00
2023-03-05T02:08:08.581Z,1013.00
2023-03-05T02:09:08.618Z,1016.00
2023-03-05T02:10:08.680Z,1018.00
2023-03-05T02:11:08.744Z,1014.00
2023-03-05T02:12:08.815Z,1007.00
2023-03-05T02:13:08.868Z,1003.00
2023-03-05T02:14:10.144Z,1000.00
2023-03-05T02:15:08.960Z,1002.00
2023-03-05T02:16:09.056Z,997.00
2023-03-05T02:17:09.083Z,1001.00
2023-03-05T02:18:09.157Z,998.00
2023-03-05T02:19:09.225Z,999.00
2023-03-05T02:20:09.264Z,997.00
2023-03-05T02:21:09.370Z,1003.00
2023-03-05T02:22:09.475Z,1001.00
2023-03-05T02:23:09.449Z,1004.00
2023-03-05T02:24:10.492Z,1005.00
2023-03-05T02:25:09.554Z,1002.00
2023-03-05T02:26:09.648Z,1003.00
2023-03-05T02:27:09.676Z,999.00
2023-03-05T02:28:09.739Z,998.00
2023-03-05T02:29:09.790Z,997.00
2023-03-05T02:30:09.927Z,998.00
2023-03-05T02:31:09.910Z,999.00
2023-03-05T02:32:10.075Z,1001.00
2023-03-05T02:33:10.028Z,998.00
2023-03-05T02:34:10.075Z,993.00
2023-03-05T04:35:18.568Z,972.00
2023-03-05T04:36:17.736Z,971.00
2023-03-05T04:37:17.792Z,968.00
2023-03-05T04:38:17.865Z,966.00
2023-03-05T04:39:17.937Z,968.00
2023-03-05T04:40:17.999Z,966.00
2023-03-05T04:41:18.046Z,970.00
2023-03-05T04:42:18.189Z,972.00
2023-03-05T04:43:18.178Z,977.00
2023-03-05T04:44:18.243Z,976.00
2023-03-05T05:00:19.169Z,963.00
2023-03-05T05:01:19.215Z,962.00
2023-03-05T05:02:19.189Z,962.00
2023-03-05T05:03:19.218Z,965.00
2023-03-05T05:04:19.219Z,960.00
2023-03-05T05:05:19.247Z,959.00
2023-03-05T05:06:19.310Z,961.00
2023-03-05T05:07:19.260Z,963.00
2023-03-05T05:08:19.275Z,961.00
2023-03-05T05:09:19.286Z,962.00
2023-03-05T05:10:19.303Z,961.00
2023-03-05T05:11:19.312Z,963.00
2023-03-05T05:12:20.034Z,962.00
2023-03-05T05:13:19.341Z,963.00
2023-03-05T05:14:19.375Z,966.00
2023-03-05T05:15:19.359Z,967.00
2023-03-05T05:16:19.473Z,968.00
2023-03-05T05:17:19.375Z,963.00
2023-03-05T05:18:19.383Z,964.00
2023-03-05T05:19:19.490Z,968.00
2023-03-05T05:20:19.421Z,963.00
2023-03-05T05:21:19.452Z,961.00
2023-03-05T05:22:19.441Z,960.00
2023-03-05T05:23:19.454Z,962.00
2023-03-05T05:24:19.488Z,960.00
2023-03-05T05:25:19.484Z,962.00
2023-03-05T05:26:19.542Z,961.00
2023-03-05T05:27:19.508Z,957.00
2023-03-05T05:28:19.513Z,957.00
2023-03-05T05:29:20.042Z,957.00
2023-03-05T05:30:20.048Z,957.00
2023-03-05T05:31:19.581Z,957.00
2023-03-05T05:32:19.675Z,960.00
2023-03-05T05:33:19.581Z,958.00
2023-03-05T05:34:20.542Z,957.00
2023-03-05T05:35:19.674Z,957.00
2023-03-05T05:36:20.571Z,957.00
2023-03-05T05:37:19.657Z,954.00
2023-03-05T05:38:19.660Z,951.00
2023-03-05T05:39:20.552Z,950.00
2023-03-05T05:40:19.674Z,956.00
2023-03-05T05:41:19.685Z,956.00
2023-03-05T05:42:19.708Z,959.00
2023-03-05T05:43:19.732Z,956.00
2023-03-05T05:44:19.741Z,957.00
2023-03-05T05:45:19.838Z,960.00
2023-03-05T05:46:20.018Z,958.00
2023-03-05T05:47:19.954Z,962.00
2023-03-05T05:48:20.011Z,963.00
2023-03-05T05:49:20.079Z,962.00
2023-03-05T05:50:20.172Z,960.00
2023-03-05T05:51:21.094Z,958.00
2023-03-05T05:52:20.352Z,956.00
2023-03-05T05:53:20.342Z,953.00
2023-03-05T05:54:20.410Z,952.00
2023-03-05T05:55:20.478Z,951.00
2023-03-05T05:56:20.561Z,955.00
2023-03-05T05:57:20.615Z,955.00
2023-03-05T05:58:20.680Z,954.00
2023-03-05T05:59:20.752Z,952.00
2023-03-05T06:00:20.903Z,949.00
2023-03-05T06:01:20.895Z,949.00
2023-03-05T07:44:28.160Z,916.00
2023-03-05T07:51:27.793Z,926.00
2023-03-05T07:52:27.790Z,927.00
2023-03-05T07:53:27.832Z,925.00
2023-03-05T07:54:27.911Z,918.00
2023-03-05T07:55:27.941Z,915.00
2023-03-05T07:56:28.000Z,918.00
2023-03-05T07:57:28.058Z,917.00
2023-03-05T07:58:28.112Z,920.00
2023-03-05T07:59:29.087Z,919.00
2023-03-05T08:00:28.201Z,923.00
2023-03-05T08:01:28.244Z,926.00
2023-03-05T08:02:28.337Z,926.00
2023-03-05T08:03:28.353Z,922.00
2023-03-05T08:04:28.453Z,918.00
2023-03-05T08:05:28.438Z,921.00
2023-03-05T08:06:28.496Z,920.00
2023-03-05T08:07:28.539Z,920.00
2023-03-05T08:08:29.104Z,918.00
2023-03-05T08:09:28.637Z,916.00
2023-03-05T08:10:28.708Z,917.00
2023-03-05T08:11:28.800Z,915.00
2023-03-05T08:12:28.788Z,911.00
2023-03-05T08:13:28.908Z,913.00
2023-03-05T08:14:28.920Z,913.00
2023-03-05T08:15:28.909Z,917.00
2023-03-05T08:16:29.053Z,917.00
2023-03-05T08:17:29.021Z,916.00
2023-03-05T08:18:29.075Z,916.00
2023-03-05T08:19:29.110Z,917.00
2023-03-05T08:20:29.150Z,917.00
2023-03-05T08:21:29.206Z,917.00
2023-03-05T08:22:29.258Z,920.00
2023-03-05T08:23:29.288Z,916.00
2023-03-05T08:24:29.334Z,914.00
2023-03-05T08:25:29.392Z,915.00
2023-03-05T08:26:29.427Z,915.00
2023-03-05T08:27:29.474Z,915.00
2023-03-05T08:28:29.535Z,914.00
2023-03-05T08:29:30.097Z,918.00
2023-03-05T08:30:29.612Z,918.00
2023-03-05T08:31:29.696Z,909.00
2023-03-05T08:32:29.813Z,911.00
2023-03-05T08:33:31.444Z,911.00
2023-03-05T08:34:29.799Z,908.00
2023-03-05T08:35:29.871Z,910.00
2023-03-05T08:36:29.900Z,911.00
2023-03-05T08:37:29.925Z,910.00
2023-03-05T08:38:29.973Z,912.00
2023-03-05T08:39:30.010Z,910.00
2023-03-05T08:40:30.063Z,911.00
2023-03-05T08:41:30.108Z,910.00
2023-03-05T08:42:30.132Z,912.00
2023-03-05T08:43:30.172Z,910.00
2023-03-05T08:44:30.205Z,910.00
2023-03-05T08:45:30.244Z,904.00
2023-03-05T08:46:30.339Z,900.00
2023-03-05T08:47:30.333Z,902.00
2023-03-05T08:48:30.390Z,904.00
2023-03-05T08:49:30.410Z,902.00
2023-03-05T08:50:30.466Z,901.00
2023-03-05T08:51:30.558Z,900.00
2023-03-05T08:52:30.625Z,902.00
2023-03-05T08:53:30.602Z,903.00
2023-03-05T08:54:30.633Z,901.00
2023-03-05T08:55:30.666Z,902.00
2023-03-05T08:56:30.695Z,897.00
2023-03-05T08:57:30.732Z,896.00
2023-03-05T08:58:30.791Z,896.00
2023-03-05T08:59:30.822Z,893.00
2023-03-05T09:00:30.867Z,898.00
2023-03-05T09:01:30.975Z,898.00
2023-03-05T09:02:30.979Z,896.00
2023-03-05T09:03:31.004Z,898.00
2023-03-05T09:04:31.058Z,899.00
2023-03-05T09:05:31.098Z,903.00
2023-03-05T09:06:31.127Z,906.00
2023-03-05T09:07:31.176Z,906.00
2023-03-05T09:08:31.217Z,905.00
2023-03-05T09:09:31.277Z,901.00
2023-03-05T09:10:31.310Z,904.00
2023-03-05T09:11:31.348Z,901.00
2023-03-05T09:12:32.189Z,900.00
2023-03-05T09:13:31.424Z,896.00
2023-03-05T09:14:31.472Z,893.00
2023-03-05T09:15:31.527Z,891.00
2023-03-05T09:16:31.586Z,898.00
2023-03-05T09:17:31.596Z,900.00
2023-03-05T09:18:31.628Z,894.00
2023-03-05T09:19:31.696Z,899.00
2023-03-05T09:20:31.721Z,895.00
2023-03-05T09:21:31.759Z,894.00
2023-03-05T09:22:31.809Z,895.00
2023-03-05T09:23:31.853Z,900.00
2023-03-05T09:24:31.907Z,896.00
2023-03-05T09:25:31.936Z,896.00
2023-03-05T09:26:31.973Z,896.00
2023-03-05T09:27:32.017Z,895.00
2023-03-05T09:28:32.066Z,898.00
2023-03-05T09:29:32.127Z,899.00
2023-03-05T09:30:32.205Z,891.00
2023-03-05T09:31:32.333Z,888.00
2023-03-05T09:32:32.314Z,888.00
2023-03-05T09:33:32.259Z,888.00
2023-03-05T09:34:32.320Z,891.00
2023-03-05T09:35:32.441Z,891.00
2023-03-05T09:36:32.407Z,889.00
2023-03-05T09:37:32.434Z,887.00
2023-03-05T09:38:32.477Z,890.00
2023-03-05T09:39:32.618Z,889.00
2023-03-05T09:40:32.549Z,890.00
2023-03-05T09:41:32.626Z,887.00
2023-03-05T09:42:32.627Z,887.00
2023-03-05T09:43:32.666Z,883.00
2023-03-05T09:44:32.711Z,883.00
2023-03-05T09:45:32.774Z,883.00
2023-03-05T09:46:32.792Z,883.00
2023-03-05T09:47:32.822Z,889.00
2023-03-05T09:48:32.846Z,884.00
2023-03-05T09:49:33.610Z,882.00
2023-03-05T09:50:32.914Z,884.00
2023-03-05T09:51:32.948Z,888.00
2023-03-05T09:52:32.992Z,886.00
2023-03-05T09:53:33.029Z,884.00
2023-03-05T09:54:33.062Z,889.00
2023-03-05T09:55:33.122Z,894.00
2023-03-05T09:56:33.124Z,892.00
2023-03-05T09:57:33.164Z,886.00
2023-03-05T09:58:33.198Z,885.00
2023-03-05T09:59:33.249Z,883.00
2023-03-05T10:00:33.329Z,885.00
2023-03-05T10:01:33.315Z,886.00
2023-03-05T10:02:33.348Z,889.00
2023-03-05T10:03:33.377Z,890.00
2023-03-05T10:04:33.414Z,891.00
2023-03-05T10:05:33.455Z,887.00
2023-03-05T10:06:33.505Z,887.00
2023-03-05T10:07:33.532Z,885.00
2023-03-05T10:08:33.560Z,883.00
2023-03-05T10:09:34.968Z,881.00
2023-03-05T10:10:33.607Z,881.00
2023-03-05T10:11:33.619Z,879.00
2023-03-05T10:12:34.122Z,885.00
2023-03-05T10:13:33.622Z,880.00
2023-03-05T10:14:33.622Z,884.00
2023-03-05T10:15:33.619Z,884.00
2023-03-05T10:16:33.749Z,880.00
2023-03-05T10:17:33.626Z,880.00
2023-03-05T10:18:33.698Z,882.00
2023-03-05T10:19:33.636Z,884.00
2023-03-05T10:20:33.634Z,886.00
2023-03-05T10:21:33.646Z,883.00
2023-03-05T10:22:33.640Z,885.00
2023-03-05T10:23:33.653Z,884.00
2023-03-05T10:24:33.670Z,884.00
2023-03-05T10:25:34.633Z,887.00
2023-03-05T10:26:33.649Z,891.00
2023-03-05T10:27:33.691Z,888.00
2023-03-05T10:28:33.641Z,889.00
2023-03-05T10:29:33.658Z,881.00
2023-03-05T10:30:33.665Z,880.00
2023-03-05T10:31:33.677Z,881.00
2023-03-05T10:32:33.690Z,879.00
2023-03-05T10:33:33.762Z,873.00
2023-03-05T10:34:33.666Z,872.00
2023-03-05T10:35:34.190Z,875.00
2023-03-05T10:36:33.666Z,873.00
2023-03-05T10:37:33.677Z,878.00
2023-03-05T10:38:33.661Z,873.00
2023-03-05T10:39:33.658Z,874.00
2023-03-05T10:40:33.668Z,871.00
2023-03-05T10:41:33.654Z,869.00
2023-03-05T10:42:33.669Z,867.00
2023-03-05T10:44:33.681Z,870.00
2023-03-05T10:45:33.683Z,870.00
2023-03-05T10:46:33.662Z,875.00
2023-03-05T10:47:33.665Z,879.00
2023-03-05T10:48:33.663Z,879.00
2023-03-05T10:49:33.658Z,879.00
2023-03-05T10:50:33.666Z,878.00
2023-03-05T10:51:33.668Z,876.00
2023-03-05T10:52:33.687Z,879.00
2023-03-05T10:53:33.666Z,880.00
2023-03-05T10:54:33.679Z,881.00
2023-03-05T10:55:33.657Z,879.00
2023-03-05T10:56:33.672Z,884.00
2023-03-05T10:57:33.676Z,880.00
2023-03-05T10:58:33.675Z,881.00
2023-03-05T13:12:37.739Z,823.00
2023-03-05T13:13:37.771Z,818.00
2023-03-05T13:14:37.805Z,821.00
2023-03-05T13:15:38.668Z,821.00
2023-03-05T13:16:37.916Z,821.00
2023-03-05T13:17:37.934Z,821.00
2023-03-05T13:18:38.887Z,818.00
2023-03-05T13:19:37.961Z,817.00
2023-03-05T13:20:38.037Z,819.00
2023-03-05T13:21:38.034Z,817.00
2023-03-05T13:22:38.067Z,820.00
2023-03-05T13:23:38.096Z,818.00
2023-03-05T13:24:38.146Z,819.00
2023-03-05T13:25:38.176Z,815.00
2023-03-05T13:26:38.214Z,816.00
2023-03-05T13:27:38.263Z,814.00
2023-03-05T13:28:38.296Z,809.00
2023-03-05T13:29:38.407Z,808.00
2023-03-05T13:30:38.375Z,808.00
2023-03-05T13:31:38.434Z,810.00
2023-03-05T13:32:38.538Z,812.00
2023-03-05T13:33:38.531Z,812.00
2023-03-05T13:34:47.394Z,811.00
2023-03-05T13:35:39.613Z,815.00
2023-03-05T13:36:38.550Z,816.00
2023-03-05T13:37:38.543Z,811.00
2023-03-05T13:38:38.552Z,814.00
2023-03-05T13:39:38.575Z,810.00
2023-03-05T13:40:38.569Z,809.00
2023-03-05T13:41:38.564Z,807.00
2023-03-05T13:42:38.572Z,805.00
2023-03-05T13:43:38.584Z,805.00
2023-03-05T13:44:38.597Z,804.00
2023-03-05T13:45:38.691Z,803.00
2023-03-05T13:46:38.636Z,800.00
2023-03-05T13:47:38.610Z,796.00
2023-03-05T13:48:38.625Z,795.00
2023-03-05T13:49:38.678Z,798.00
2023-03-05T13:50:38.627Z,799.00
2023-03-05T13:51:38.636Z,800.00
2023-03-05T13:52:38.655Z,804.00
2023-03-05T13:53:38.799Z,804.00
2023-03-05T13:54:38.778Z,804.00
2023-03-05T13:55:38.776Z,805.00
2023-03-05T13:56:38.808Z,804.00
2023-03-05T13:57:38.861Z,803.00
2023-03-05T13:58:38.896Z,802.00
2023-03-05T13:59:39.041Z,801.00
2023-03-05T14:00:39.181Z,804.00
2023-03-05T14:01:39.024Z,807.00
2023-03-05T14:02:39.063Z,806.00
2023-03-05T14:03:39.114Z,803.00
2023-03-05T14:04:39.163Z,802.00
2023-03-05T14:05:39.203Z,805.00
2023-03-05T14:06:39.240Z,804.00
2023-03-05T14:07:39.298Z,802.00
2023-03-05T14:08:39.331Z,803.00
2023-03-05T14:09:39.404Z,796.00
2023-03-05T14:10:39.495Z,796.00
2023-03-05T14:11:39.459Z,794.00
2023-03-05T14:12:39.511Z,798.00
2023-03-05T14:13:39.690Z,800.00
2023-03-05T14:14:39.596Z,800.00
2023-03-05T14:15:39.642Z,798.00
2023-03-05T14:16:39.708Z,801.00
2023-03-05T14:17:39.729Z,802.00
2023-03-05T14:18:39.780Z,799.00
2023-03-05T14:19:39.808Z,801.00
2023-03-05T14:20:39.838Z,800.00
2023-03-05T14:21:39.896Z,801.00
2023-03-05T14:22:39.932Z,800.00
2023-03-05T14:23:39.981Z,798.00
2023-03-05T14:24:40.019Z,795.00
2023-03-05T14:25:40.141Z,792.00
2023-03-05T14:26:40.108Z,791.00
2023-03-05T14:27:40.147Z,795.00
2023-03-05T14:28:40.197Z,793.00
2023-03-05T14:29:40.240Z,796.00
2023-03-05T14:30:40.319Z,794.00
2023-03-05T14:31:40.396Z,795.00
2023-03-05T14:32:40.407Z,796.00
2023-03-05T14:33:40.409Z,796.00
2023-03-05T14:34:40.483Z,800.00
2023-03-05T14:35:40.540Z,799.00
2023-03-05T14:36:40.557Z,797.00
2023-03-05T14:37:40.599Z,799.00
2023-03-05T14:38:40.652Z,802.00
2023-03-05T14:39:40.772Z,803.00
2023-03-05T14:40:40.743Z,804.00
2023-03-05T14:41:40.793Z,802.00
2023-03-05T14:42:40.827Z,803.00
2023-03-05T14:43:40.884Z,802.00
2023-03-05T14:44:40.922Z,803.00
2023-03-05T14:45:41.119Z,804.00
2023-03-05T14:46:41.017Z,804.00
2023-03-05T14:47:41.052Z,804.00
2023-03-05T14:48:41.093Z,804.00
2023-03-05T14:49:41.147Z,804.00
2023-03-05T14:50:42.165Z,809.00
2023-03-05T14:51:41.230Z,805.00
2023-03-05T14:52:41.293Z,810.00
2023-03-05T14:53:41.371Z,810.00
2023-03-05T14:54:41.361Z,807.00
2023-03-05T14:55:41.425Z,807.00
2023-03-05T14:56:41.454Z,801.00
2023-03-05T14:57:41.505Z,804.00
2023-03-05T14:58:41.533Z,805.00
2023-03-05T14:59:41.578Z,802.00
2023-03-05T15:00:41.645Z,798.00
2023-03-05T15:01:41.721Z,798.00
2023-03-05T15:02:41.782Z,800.00
2023-03-05T15:03:41.784Z,802.00
2023-03-05T15:04:41.842Z,800.00
2023-03-05T15:05:41.906Z,798.00
2023-03-05T15:06:41.964Z,798.00
2023-03-05T15:07:41.957Z,801.00
2023-03-05T15:08:42.029Z,797.00
2023-03-05T15:09:42.045Z,802.00
2023-03-05T15:10:42.094Z,803.00
2023-03-05T15:11:42.145Z,798.00
2023-03-05T15:12:42.182Z,799.00
2023-03-05T15:13:42.245Z,798.00
2023-03-05T15:14:42.291Z,798.00
2023-03-05T15:15:42.323Z,800.00
2023-03-05T15:16:42.367Z,798.00
2023-03-05T15:17:42.420Z,801.00
2023-03-05T15:18:42.461Z,801.00
2023-03-05T15:19:42.506Z,801.00
2023-03-05T15:20:42.707Z,804.00
2023-03-05T15:21:42.645Z,808.00
2023-03-05T15:22:42.653Z,809.00
2023-03-05T15:23:42.687Z,804.00
2023-03-05T15:24:42.742Z,797.00
2023-03-05T15:25:43.207Z,800.00
2023-03-05T15:26:42.862Z,801.00
2023-03-05T15:27:43.698Z,802.00
2023-03-05T15:28:42.964Z,804.00
2023-03-05T15:29:43.704Z,805.00
2023-03-05T15:30:43.050Z,800.00
2023-03-05T15:31:43.092Z,802.00
2023-03-05T15:32:43.157Z,805.00
2023-03-05T15:33:43.198Z,806.00
2023-03-05T15:34:43.276Z,802.00
2023-03-05T15:35:43.394Z,804.00
2023-03-05T15:36:43.359Z,801.00
2023-03-05T15:37:43.418Z,798.00
2023-03-05T16:45:47.702Z,782.00
2023-03-05T16:46:47.840Z,781.00
2023-03-05T16:47:47.858Z,778.00
2023-03-05T16:48:47.979Z,780.00
2023-03-05T16:49:48.059Z,786.00
2023-03-05T16:50:48.063Z,786.00
2023-03-05T16:51:48.150Z,788.00
2023-03-05T16:52:48.207Z,791.00
2023-03-05T16:53:48.286Z,789.00
2023-03-05T16:54:48.350Z,789.00
2023-03-05T16:55:48.426Z,789.00
2023-03-05T16:56:48.509Z,785.00
2023-03-05T16:57:48.589Z,785.00
2023-03-05T16:58:50.536Z,784.00
2023-03-05T16:59:48.672Z,783.00
2023-03-05T17:00:48.741Z,785.00
2023-03-05T17:01:48.697Z,778.00
2023-03-05T17:02:48.698Z,775.00
2023-03-05T17:03:48.865Z,777.00
2023-03-05T17:04:48.734Z,775.00
2023-03-05T17:05:48.738Z,774.00
2023-03-05T17:06:48.742Z,773.00
2023-03-05T17:07:48.759Z,777.00
2023-03-05T17:08:48.766Z,779.00
2023-03-05T17:09:48.785Z,779.00
2023-03-05T17:10:49.738Z,780.00
2023-03-05T17:11:48.812Z,778.00
2023-03-05T17:12:48.830Z,778.00
2023-03-05T17:13:49.146Z,776.00
2023-03-05T17:14:48.853Z,774.00
2023-03-05T17:15:49.746Z,776.00
2023-03-05T17:16:49.282Z,771.00
2023-03-05T17:17:48.947Z,770.00
2023-03-05T17:18:48.892Z,772.00
2023-03-05T17:19:48.918Z,774.00
2023-03-05T17:20:48.927Z,772.00
2023-03-05T17:21:48.927Z,770.00
2023-03-05T17:22:48.934Z,772.00
2023-03-05T17:23:48.965Z,773.00
2023-03-05T17:24:48.971Z,774.00
2023-03-05T17:25:48.982Z,778.00
2023-03-05T17:26:48.994Z,779.00
2023-03-05T17:27:49.007Z,780.00
2023-03-05T17:28:49.016Z,779.00
2023-03-05T18:52:58.335Z,770.00
2023-03-05T19:34:59.271Z,760.00
2023-03-05T20:15:57.847Z,761.00
2023-03-05T20:16:57.829Z,760.00
2023-03-05T20:17:57.895Z,759.00
2023-03-05T20:18:57.978Z,758.00
2023-03-05T20:19:58.058Z,756.00
2023-03-05T20:20:58.149Z,755.00
2023-03-05T20:21:58.313Z,758.00
2023-03-05T20:22:58.316Z,752.00
2023-03-05T20:23:58.397Z,753.00
2023-03-05T20:24:58.482Z,750.00
2023-03-05T20:25:58.553Z,748.00
2023-03-05T20:26:58.629Z,750.00
2023-03-05T20:27:58.703Z,754.00
2023-03-05T20:28:58.784Z,755.00
2023-03-05T20:29:58.856Z,752.00
2023-03-05T20:30:59.024Z,751.00
2023-03-05T20:31:59.088Z,751.00
2023-03-05T20:32:59.131Z,752.00
2023-03-05T20:33:59.192Z,755.00
2023-03-05T20:34:59.280Z,753.00
2023-03-05T20:35:59.360Z,753.00
2023-03-05T20:36:59.451Z,758.00
2023-03-05T20:37:59.527Z,758.00
2023-03-05T20:38:59.610Z,758.00
2023-03-05T20:39:59.684Z,755.00
2023-03-05T20:40:59.763Z,756.00
2023-03-05T20:41:59.867Z,758.00
2023-03-05T20:42:59.946Z,758.00
2023-03-05T20:44:00.020Z,759.00
2023-03-05T20:45:00.111Z,758.00
2023-03-05T22:19:07.736Z,749.00
2023-03-05T22:20:07.812Z,748.00
2023-03-05T22:21:07.898Z,751.00
2023-03-05T22:22:07.992Z,752.00
2023-03-05T22:23:08.087Z,751.00
2023-03-05T22:24:08.146Z,751.00
2023-03-05T22:25:08.213Z,750.00
2023-03-05T22:26:08.313Z,746.00
2023-03-05T22:27:08.373Z,745.00
2023-03-05T22:28:08.455Z,746.00
2023-03-05T22:29:08.598Z,750.00
2023-03-05T22:30:08.611Z,749.00
2023-03-05T22:31:08.838Z,751.00
2023-03-05T22:32:08.798Z,750.00
2023-03-05T22:33:09.311Z,752.00
2023-03-05T22:34:08.952Z,753.00
2023-03-05T22:35:09.037Z,753.00
2023-03-05T22:36:09.187Z,753.00
2023-03-05T22:37:09.194Z,751.00
2023-03-05T22:38:09.281Z,749.00
2023-03-05T22:39:10.307Z,750.00
2023-03-05T22:40:10.297Z,748.00
2023-03-05T22:41:09.524Z,747.00
2023-03-05T22:42:09.590Z,745.00
2023-03-05T22:43:09.816Z,743.00
2023-03-05T22:44:09.733Z,744.00
2023-03-05T22:45:09.901Z,744.00
2023-03-05T22:46:09.947Z,739.00
2023-03-05T22:47:09.977Z,741.00
2023-03-05T22:48:10.078Z,744.00
2023-03-05T22:49:10.134Z,744.00
2023-03-05T22:50:10.220Z,744.00
2023-03-05T22:51:10.301Z,744.00
2023-03-05T22:52:10.371Z,744.00
2023-03-05T22:53:10.453Z,739.00
2023-03-05T22:54:10.512Z,742.00
2023-03-05T22:55:10.616Z,738.00
2023-03-05T22:56:10.668Z,738.00
2023-03-05T22:57:10.800Z,741.00
2023-03-05T22:58:10.832Z,742.00
2023-03-05T22:59:10.897Z,742.00
2023-03-05T23:00:10.981Z,743.00
2023-03-05T23:01:11.056Z,744.00
2023-03-05T23:02:11.204Z,745.00
2023-03-05T23:03:11.281Z,743.00
2023-03-05T23:04:11.375Z,743.00
2023-03-05T23:05:11.395Z,744.00
2023-03-05T23:06:11.473Z,747.00
2023-03-05T23:07:11.563Z,746.00
2023-03-05T23:08:11.641Z,744.00
2023-03-05T23:44:14.489Z,740.00
2023-03-05T23:45:14.568Z,744.00
2023-03-05T23:46:14.677Z,751.00
2023-03-05T23:47:14.732Z,744.00
2023-03-05T23:48:14.824Z,746.00
2023-03-05T23:49:14.917Z,745.00
2023-03-05T23:50:15.044Z,744.00
2023-03-05T23:51:15.055Z,743.00
2023-03-05T23:52:15.153Z,741.00
2023-03-05T23:53:15.206Z,744.00
2023-03-05T23:54:15.385Z,740.00
2023-03-05T23:55:15.377Z,743.00
2023-03-05T23:56:15.560Z,744.00
2023-03-05T23:57:15.551Z,738.00
2023-03-05T23:58:15.621Z,737.00
2023-03-05T23:59:15.692Z,734.00
